< < Back
Terminal Aerodrome Forecast


Current Version              Previous Versions:   1  2  3  4  5  6  7  8  9  

Terminal Aerodrome Forecast

328
FTUS42 KCAE 021100
TAFCAE
TAF
KCAE 021134Z 0212/0312 VRB03KT 3SM BR OVC003
      TEMPO 0212/0214 1/2SM FG OVC002
     FM021500 26005KT 6SM BR OVC008
     FM021700 29005KT P6SM BKN025
     FM022100 04005KT P6SM BKN050
     FM030300 06007KT P6SM OVC015
     FM030900 07008KT 6SM -RA BR BKN007 OVC015=

Latest METAR

089
SAUS80 KWBC 021200
MTRCAE
METAR KCAE 021156Z 22004KT 1/4SM FG OVC002 08/08 A3025 RMK AO2 SFC VIS
1/2 SLP243 70015 T00830078 10083 20061 50002 RVRNO $


USA.gov is the U.S. government's official web portal to all federal, state and local government web resources and services.